createdAt,value
2018-05-14T00:00:45.521Z,7.23
2018-05-14T00:03:14.962Z,9.97
2018-05-14T00:05:44.443Z,8.43
2018-05-14T00:08:15.535Z,7.10
2018-05-14T00:10:44.841Z,7.10
2018-05-14T00:13:14.799Z,9.03
2018-05-14T00:15:46.216Z,5.80
2018-05-14T00:18:15.627Z,6.17
2018-05-14T00:20:46.190Z,6.10
2018-05-14T00:23:15.131Z,6.87
2018-05-14T00:25:45.275Z,6.03
2018-05-14T00:28:20.383Z,7.80
2018-05-14T00:30:55.547Z,5.77
2018-05-14T00:33:32.605Z,5.53
2018-05-14T00:36:02.508Z,5.87
2018-05-14T00:38:33.081Z,6.60
2018-05-14T00:41:02.039Z,5.73
2018-05-14T00:43:31.865Z,5.77
2018-05-14T00:46:00.792Z,5.23
2018-05-14T00:48:29.768Z,5.97
2018-05-14T00:50:58.699Z,6.83
2018-05-14T00:53:28.082Z,7.27
2018-05-14T00:55:57.128Z,6.30
2018-05-14T00:58:27.249Z,6.70
2018-05-14T01:00:59.487Z,5.10
2018-05-14T01:03:29.221Z,6.40
2018-05-14T01:05:59.821Z,5.33
2018-05-14T01:08:29.727Z,6.70
2018-05-14T01:11:00.974Z,4.90
2018-05-14T01:13:29.919Z,6.70
2018-05-14T01:15:59.227Z,5.87
2018-05-14T01:18:28.168Z,6.37
2018-05-14T01:20:57.410Z,5.73
2018-05-14T01:23:28.415Z,5.83
2018-05-14T01:25:59.900Z,7.30
2018-05-14T01:28:29.170Z,5.37
2018-05-14T01:30:58.280Z,7.00
2018-05-14T01:33:27.331Z,6.67
2018-05-14T01:35:57.059Z,6.13
2018-05-14T01:38:28.687Z,6.03
2018-05-14T01:40:58.891Z,6.77
2018-05-14T01:43:28.901Z,4.53
2018-05-14T01:45:59.801Z,7.40
2018-05-14T01:48:29.945Z,5.30
2018-05-14T01:51:02.495Z,5.27
2018-05-14T01:53:45.576Z,4.33
2018-05-14T01:56:14.546Z,6.27
2018-05-14T01:58:44.748Z,5.93
2018-05-14T02:01:14.470Z,7.20
2018-05-14T02:03:43.906Z,6.80
2018-05-14T02:06:12.997Z,6.43
2018-05-14T02:08:47.301Z,7.23
2018-05-14T02:11:39.173Z,5.73
2018-05-14T02:14:08.313Z,7.13
2018-05-14T02:16:37.231Z,6.00
2018-05-14T02:19:08.348Z,6.93
2018-05-14T02:21:48.057Z,5.40
2018-05-14T02:24:17.008Z,6.07
2018-05-14T02:26:49.030Z,6.87
2018-05-14T02:29:20.530Z,7.00
2018-05-14T02:31:49.714Z,7.97
2018-05-14T02:34:19.755Z,5.30
2018-05-14T02:36:48.671Z,7.60
2018-05-14T02:39:18.332Z,5.63
2018-05-14T02:41:52.214Z,5.97
2018-05-14T02:44:23.574Z,6.70
2018-05-14T02:46:53.899Z,5.80
2018-05-14T02:49:25.314Z,7.73
2018-05-14T02:51:54.879Z,6.73
2018-05-14T02:54:24.418Z,6.27
2018-05-14T02:57:01.971Z,5.17
2018-05-14T02:59:32.413Z,5.40
2018-05-14T03:02:04.176Z,6.60
2018-05-14T03:04:34.374Z,7.13
2018-05-14T03:07:03.609Z,5.87
2018-05-14T03:09:32.788Z,6.70
2018-05-14T03:12:02.702Z,5.63
2018-05-14T03:14:32.403Z,9.40
2018-05-14T03:17:02.074Z,5.47
2018-05-14T03:19:34.566Z,6.77
2018-05-14T03:22:08.538Z,8.83
2018-05-14T03:24:37.465Z,8.93
2018-05-14T03:27:06.378Z,7.33
2018-05-14T03:29:35.302Z,6.63
2018-05-14T03:32:05.981Z,5.80
2018-05-14T03:34:37.283Z,8.20
2018-05-14T03:37:06.301Z,7.83
2018-05-14T03:39:52.537Z,7.93
2018-05-14T03:42:21.472Z,7.07
2018-05-14T03:44:51.651Z,6.13
2018-05-14T03:47:25.270Z,5.90
2018-05-14T03:49:54.223Z,5.60
2018-05-14T03:52:25.259Z,8.03
2018-05-14T03:54:55.283Z,6.33
2018-05-14T03:57:24.230Z,10.97
2018-05-14T04:00:08.762Z,6.57
2018-05-14T04:02:45.113Z,6.00
2018-05-14T04:05:19.007Z,6.23
2018-05-14T04:07:48.973Z,5.47
2018-05-14T04:10:17.891Z,7.50
2018-05-14T04:12:46.890Z,5.83
2018-05-14T04:15:15.846Z,5.87
2018-05-14T04:17:45.677Z,9.47
2018-05-14T04:20:15.325Z,6.50
2018-05-14T04:22:44.294Z,5.87
2018-05-14T04:25:15.690Z,6.93
2018-05-14T04:27:44.640Z,7.03
2018-05-14T04:30:14.441Z,6.10
2018-05-14T04:32:44.037Z,5.57
2018-05-14T04:35:13.649Z,6.10
2018-05-14T04:37:43.694Z,6.10
2018-05-14T04:40:14.931Z,5.67
2018-05-14T04:42:45.076Z,5.70
2018-05-14T04:45:14.688Z,7.03
2018-05-14T04:47:43.981Z,6.47
2018-05-14T04:50:17.054Z,6.70
2018-05-14T04:52:48.747Z,6.53
2018-05-14T04:55:18.068Z,7.30
2018-05-14T04:57:49.051Z,7.03
2018-05-14T05:00:31.144Z,6.50
2018-05-14T05:03:02.163Z,8.27
2018-05-14T05:05:32.040Z,8.57
2018-05-14T05:08:00.993Z,8.63
2018-05-14T05:10:30.924Z,8.00
2018-05-14T05:13:00.216Z,8.33
2018-05-14T05:15:35.134Z,8.27
2018-05-14T05:18:07.387Z,10.60
2018-05-14T05:20:37.736Z,6.33
2018-05-14T05:23:16.584Z,6.20
2018-05-14T05:25:46.235Z,7.80
2018-05-14T05:28:20.944Z,8.87
2018-05-14T05:30:55.758Z,6.50
2018-05-14T05:33:25.301Z,8.17
2018-05-14T05:35:54.676Z,7.37
2018-05-14T05:38:24.270Z,7.90
2018-05-14T05:40:55.128Z,5.93
2018-05-14T05:43:27.355Z,5.87
2018-05-14T05:46:02.031Z,6.93
2018-05-14T05:48:31.385Z,6.83
2018-05-14T05:51:09.212Z,5.70
2018-05-14T05:53:38.302Z,5.93
2018-05-14T05:56:11.520Z,6.90
2018-05-14T05:58:44.571Z,7.03
2018-05-14T06:01:13.875Z,6.07
2018-05-14T06:03:47.320Z,5.90
2018-05-14T06:06:19.740Z,6.97
2018-05-14T06:08:53.128Z,4.60
2018-05-14T06:11:23.048Z,4.53
2018-05-14T06:13:52.661Z,5.13
2018-05-14T06:16:22.408Z,4.37
2018-05-14T06:18:56.084Z,4.10
2018-05-14T06:21:30.865Z,5.03
2018-05-14T06:24:00.354Z,4.57
2018-05-14T06:26:33.842Z,5.93
2018-05-14T06:29:08.395Z,5.60
2018-05-14T06:31:42.792Z,4.30
2018-05-14T06:34:22.187Z,4.47
2018-05-14T06:37:03.944Z,4.50
2018-05-14T06:39:36.789Z,4.03
2018-05-14T06:42:10.479Z,4.50
2018-05-14T06:44:45.186Z,6.13
2018-05-14T06:47:26.255Z,5.13
2018-05-14T06:49:55.440Z,5.27
2018-05-14T06:52:24.568Z,4.97
2018-05-14T06:54:53.932Z,3.67
2018-05-14T06:57:23.404Z,4.13
2018-05-14T06:59:52.431Z,6.77
2018-05-14T07:02:28.548Z,3.40
2018-05-14T07:05:03.487Z,4.47
2018-05-14T07:07:38.309Z,4.77
2018-05-14T07:10:07.679Z,4.20
2018-05-14T07:12:37.186Z,5.23
2018-05-14T07:15:06.908Z,4.77
2018-05-14T07:17:43.574Z,4.93
2018-05-14T07:20:16.036Z,5.60
2018-05-14T07:22:48.971Z,5.73
2018-05-14T07:25:20.115Z,4.67
2018-05-14T07:27:52.626Z,6.33
2018-05-14T07:30:24.972Z,3.80
2018-05-14T07:33:08.882Z,4.63
2018-05-14T07:35:55.449Z,3.90
2018-05-14T07:38:24.815Z,5.23
2018-05-14T07:40:55.231Z,4.73
2018-05-14T07:43:29.219Z,4.43
2018-05-14T07:46:03.201Z,4.30
2018-05-14T07:48:35.350Z,3.73
2018-05-14T07:51:04.309Z,6.03
2018-05-14T07:53:33.824Z,5.10
2018-05-14T07:56:05.094Z,4.37
2018-05-14T07:58:44.355Z,5.40
2018-05-14T08:01:13.772Z,4.50
2018-05-14T08:03:43.555Z,4.97
2018-05-14T08:06:28.466Z,4.53
2018-05-14T08:08:59.449Z,3.83
2018-05-14T08:11:35.033Z,4.57
2018-05-14T08:14:25.938Z,4.23
2018-05-14T08:17:18.367Z,3.73
2018-05-14T08:20:02.636Z,3.37
2018-05-14T08:22:31.590Z,4.70
2018-05-14T08:25:02.685Z,2.70
2018-05-14T08:27:43.702Z,3.00
2018-05-14T08:30:24.409Z,2.77
2018-05-14T08:33:03.660Z,3.67
2018-05-14T08:35:48.292Z,3.40
2018-05-14T08:38:35.209Z,4.10
2018-05-14T08:41:33.977Z,1.93
2018-05-14T08:44:04.891Z,1.77
2018-05-14T08:46:36.726Z,2.70
2018-05-14T08:49:19.855Z,1.47
2018-05-14T08:51:48.758Z,2.60
2018-05-14T08:54:18.473Z,2.90
2018-05-14T08:56:52.959Z,2.13
2018-05-14T08:59:25.734Z,2.27
2018-05-14T09:02:00.343Z,3.57
2018-05-14T09:04:32.419Z,1.73
2018-05-14T09:07:03.920Z,2.30
2018-05-14T09:09:34.275Z,3.50
2018-05-14T09:12:09.709Z,1.77
2018-05-14T09:14:40.083Z,2.20
2018-05-14T09:17:09.766Z,3.37
2018-05-14T09:19:38.976Z,2.00
2018-05-14T09:22:08.185Z,2.78
2018-05-14T09:24:37.584Z,2.50
2018-05-14T09:27:25.756Z,3.43
2018-05-14T09:30:03.065Z,2.00
2018-05-14T09:32:32.032Z,2.77
2018-05-14T09:35:00.943Z,3.67
2018-05-14T09:37:30.736Z,3.57
2018-05-14T09:40:01.414Z,3.33
2018-05-14T09:42:34.134Z,2.90
2018-05-14T09:45:03.974Z,4.17
2018-05-14T09:47:36.204Z,2.10
2018-05-14T09:50:06.060Z,3.00
2018-05-14T09:52:35.248Z,3.43
2018-05-14T09:55:04.177Z,3.07
2018-05-14T09:57:33.401Z,3.97
2018-05-14T10:00:08.084Z,3.27
2018-05-14T10:02:37.011Z,6.00
2018-05-14T10:05:06.279Z,2.83
2018-05-14T10:07:35.596Z,4.57
2018-05-14T10:10:07.091Z,2.53
2018-05-14T10:12:43.655Z,5.60
2018-05-14T10:15:13.031Z,4.77
2018-05-14T10:17:44.141Z,3.17
2018-05-14T10:20:20.317Z,3.03
2018-05-14T10:22:54.870Z,4.03
2018-05-14T10:25:31.428Z,3.03
2018-05-14T10:28:01.805Z,5.37
2018-05-14T10:30:30.791Z,3.33
2018-05-14T10:32:59.971Z,3.23
2018-05-14T10:35:29.946Z,4.03
2018-05-14T10:38:02.285Z,4.33
2018-05-14T10:40:31.933Z,2.70
2018-05-14T10:43:01.505Z,4.13
2018-05-14T10:45:30.995Z,4.67
2018-05-14T10:48:01.579Z,3.17
2018-05-14T10:50:31.514Z,2.53
2018-05-14T10:53:02.147Z,2.83
2018-05-14T10:55:31.063Z,2.20
2018-05-14T10:58:00.423Z,6.67
2018-05-14T11:00:35.799Z,2.57
2018-05-14T11:03:04.791Z,2.97
2018-05-14T11:05:36.083Z,4.67
2018-05-14T11:08:08.407Z,2.30
2018-05-14T11:10:38.128Z,2.57
2018-05-14T11:13:07.987Z,2.60
2018-05-14T11:15:39.504Z,2.23
2018-05-14T11:18:09.175Z,3.90
2018-05-14T11:20:43.373Z,4.60
2018-05-14T11:23:17.834Z,3.30
2018-05-14T11:26:03.827Z,2.30
2018-05-14T11:28:54.014Z,2.30
2018-05-14T11:31:24.564Z,2.37
2018-05-14T11:33:55.387Z,7.33
2018-05-14T11:36:31.990Z,4.35
2018-05-14T11:39:03.831Z,3.83
2018-05-14T11:41:38.177Z,4.90
2018-05-14T11:44:10.583Z,2.47
2018-05-14T11:46:40.263Z,2.78
2018-05-14T11:49:11.573Z,2.75
2018-05-14T11:51:40.493Z,2.47
2018-05-14T11:54:11.527Z,3.10
2018-05-14T11:56:41.642Z,2.92
2018-05-14T11:59:10.708Z,4.82
2018-05-14T12:01:42.641Z,2.40
2018-05-14T12:04:15.533Z,2.95
2018-05-14T12:06:45.901Z,2.70
2018-05-14T12:09:22.423Z,2.62
2018-05-14T12:12:01.348Z,4.17
2018-05-14T12:14:32.526Z,2.20
2018-05-14T12:17:14.528Z,4.30
2018-05-14T12:19:44.900Z,3.00
2018-05-14T12:22:13.937Z,2.40
2018-05-14T12:24:43.210Z,2.43
2018-05-14T12:27:13.159Z,2.40
2018-05-14T12:29:44.148Z,3.17
2018-05-14T12:32:28.064Z,3.63
2018-05-14T12:34:58.856Z,2.50
2018-05-14T12:37:28.392Z,2.53
2018-05-14T12:40:15.454Z,4.43
2018-05-14T12:43:08.529Z,2.13
2018-05-14T12:45:44.186Z,4.50
2018-05-14T12:48:25.399Z,4.40
2018-05-14T12:51:00.398Z,2.30
2018-05-14T12:53:30.058Z,4.30
2018-05-14T12:56:09.712Z,4.13
2018-05-14T12:58:38.637Z,3.17
2018-05-14T13:01:12.129Z,2.10
2018-05-14T13:03:41.051Z,3.30
2018-05-14T13:08:51.758Z,3.40
2018-05-14T13:11:20.704Z,2.93
2018-05-14T13:13:52.148Z,3.87
2018-05-14T13:16:21.059Z,2.37
2018-05-14T13:18:52.384Z,2.00
2018-05-14T13:21:23.876Z,2.63
2018-05-14T13:23:54.616Z,2.50
2018-05-14T13:26:26.587Z,2.33
2018-05-14T13:28:56.542Z,1.83
2018-05-14T13:31:42.689Z,4.47
2018-05-14T13:34:15.730Z,2.87
2018-05-14T13:37:06.248Z,2.90
2018-05-14T13:39:39.825Z,2.70
2018-05-14T13:42:11.185Z,1.60
2018-05-14T13:44:52.712Z,3.90
2018-05-14T13:47:21.893Z,2.20
2018-05-14T13:50:01.708Z,2.53
2018-05-14T13:52:34.379Z,2.03
2018-05-14T13:55:06.008Z,2.73
2018-05-14T13:57:39.836Z,2.20
2018-05-14T14:00:10.338Z,2.20
2018-05-14T14:02:46.597Z,2.73
2018-05-14T14:05:18.329Z,3.47
2018-05-14T14:07:47.264Z,1.97
2018-05-14T14:10:25.448Z,3.33
2018-05-14T14:12:55.074Z,1.70
2018-05-14T14:15:29.152Z,2.27
2018-05-14T14:18:01.043Z,2.40
2018-05-14T14:20:33.126Z,1.80
2018-05-14T14:23:04.529Z,2.03
2018-05-14T14:25:38.234Z,2.07
2018-05-14T14:28:08.918Z,2.23
2018-05-14T14:30:39.049Z,1.83
2018-05-14T14:33:09.482Z,2.67
2018-05-14T14:35:39.410Z,3.00
2018-05-14T14:38:12.684Z,2.13
2018-05-14T14:40:45.004Z,2.53
2018-05-14T14:43:27.417Z,2.23
2018-05-14T14:45:56.623Z,2.03
2018-05-14T14:48:26.424Z,2.53
2018-05-14T14:50:56.296Z,3.90
2018-05-14T14:53:25.814Z,2.77
2018-05-14T14:55:59.856Z,2.30
2018-05-14T14:58:50.975Z,2.63
2018-05-14T15:01:25.456Z,1.77
2018-05-14T15:03:55.932Z,2.40
2018-05-14T15:06:28.387Z,2.13
2018-05-14T15:09:00.333Z,2.53
2018-05-14T15:11:34.118Z,2.37
2018-05-14T15:14:18.876Z,2.30
2018-05-14T15:16:51.727Z,3.00
2018-05-14T15:19:29.461Z,2.77
2018-05-14T15:22:01.587Z,2.57
2018-05-14T15:24:35.613Z,2.57
2018-05-14T15:27:06.307Z,3.13
2018-05-14T15:29:41.097Z,3.10
2018-05-14T15:32:23.855Z,2.87
2018-05-14T15:35:03.075Z,5.83
2018-05-14T15:37:37.638Z,2.67
2018-05-14T15:40:18.810Z,2.60
2018-05-14T15:42:53.363Z,5.93
2018-05-14T15:45:25.996Z,3.37
2018-05-14T15:48:03.874Z,3.97
2018-05-14T15:50:40.387Z,2.90
2018-05-14T15:53:12.438Z,2.80
2018-05-14T15:55:43.708Z,3.67
2018-05-14T15:58:20.191Z,3.87
2018-05-14T16:00:52.010Z,4.87
2018-05-14T16:03:21.311Z,4.13
2018-05-14T16:05:58.009Z,3.40
2018-05-14T16:08:30.278Z,3.80
2018-05-14T16:11:01.741Z,4.83
2018-05-14T16:13:34.969Z,2.90
2018-05-14T16:16:08.463Z,3.63
2018-05-14T16:18:43.324Z,4.00
2018-05-14T16:21:13.369Z,3.70
2018-05-14T16:23:46.354Z,4.90
2018-05-14T16:26:15.906Z,4.10
2018-05-14T16:28:45.487Z,4.40
2018-05-14T16:31:15.183Z,4.03
2018-05-14T16:33:46.276Z,4.90
2018-05-14T16:36:15.200Z,3.40
2018-05-14T16:38:45.526Z,7.23
2018-05-14T16:41:14.998Z,3.77
2018-05-14T16:43:44.123Z,4.53
2018-05-14T16:46:14.166Z,3.33
2018-05-14T16:48:47.443Z,4.57
2018-05-14T16:51:21.760Z,3.77
2018-05-14T16:53:56.179Z,4.90
2018-05-14T16:56:34.600Z,5.30
2018-05-14T16:59:12.068Z,3.90
2018-05-14T17:01:47.734Z,4.55
2018-05-14T17:04:22.368Z,6.73
2018-05-14T17:06:54.498Z,3.87
2018-05-14T17:09:28.458Z,4.10
2018-05-14T17:11:59.111Z,4.27
2018-05-14T17:14:43.703Z,6.27
2018-05-14T17:17:13.266Z,6.00
2018-05-14T17:20:13.129Z,6.60
2018-05-14T17:22:45.051Z,4.47
2018-05-14T17:25:21.492Z,4.70
2018-05-14T17:28:21.127Z,3.60
2018-05-14T17:31:04.407Z,3.67
2018-05-14T17:33:36.605Z,4.07
2018-05-14T17:36:15.027Z,5.37
2018-05-14T17:39:03.001Z,3.50
2018-05-14T17:41:35.364Z,5.27
2018-05-14T17:44:09.015Z,3.83
2018-05-14T17:46:45.607Z,3.33
2018-05-14T17:49:24.656Z,4.33
2018-05-14T17:52:06.776Z,3.30
2018-05-14T17:54:54.506Z,3.37
2018-05-14T17:57:23.489Z,3.50
2018-05-14T18:00:00.407Z,5.33
2018-05-14T18:02:29.959Z,3.83
2018-05-14T18:05:26.490Z,2.87
2018-05-14T18:08:24.227Z,3.27
2018-05-14T18:10:55.269Z,3.10
2018-05-14T18:13:27.121Z,3.63
2018-05-14T18:15:56.362Z,3.73
2018-05-14T18:18:34.979Z,4.53
2018-05-14T18:21:09.851Z,5.30
2018-05-14T18:23:44.886Z,3.37
2018-05-14T18:26:26.052Z,6.20
2018-05-14T18:29:03.095Z,5.17
2018-05-14T18:31:45.738Z,4.57
2018-05-14T18:34:17.745Z,4.60
2018-05-14T18:36:48.417Z,4.37
2018-05-14T18:39:33.793Z,4.63
2018-05-14T18:42:40.765Z,4.30
2018-05-14T18:45:26.424Z,3.87
2018-05-14T18:47:55.357Z,6.13
2018-05-14T18:50:31.579Z,6.17
2018-05-14T18:53:30.059Z,4.80
2018-05-14T18:56:10.768Z,4.90
2018-05-14T18:58:48.638Z,5.13
2018-05-14T19:01:26.561Z,4.10
2018-05-14T19:04:16.583Z,4.87
2018-05-14T19:07:03.531Z,4.13
2018-05-14T19:09:52.501Z,5.37
2018-05-14T19:12:38.744Z,8.00
2018-05-14T19:15:29.284Z,6.40
2018-05-14T19:18:21.367Z,4.47
2018-05-14T19:21:12.875Z,7.23
2018-05-14T19:24:06.754Z,5.87
2018-05-14T19:26:52.213Z,5.83
2018-05-14T19:29:35.186Z,5.40
2018-05-14T19:32:14.957Z,4.97
2018-05-14T19:35:04.379Z,3.87
2018-05-14T19:37:39.438Z,6.23
2018-05-14T19:40:26.618Z,4.87
2018-05-14T19:43:00.853Z,6.63
2018-05-14T19:45:44.942Z,6.30
2018-05-14T19:48:17.320Z,6.23
2018-05-14T19:50:53.548Z,4.33
2018-05-14T19:53:43.774Z,4.20
2018-05-14T19:59:27.048Z,4.40
2018-05-14T20:02:17.480Z,4.97
2018-05-14T20:05:00.334Z,4.13
2018-05-14T20:07:32.262Z,4.23
2018-05-14T20:10:05.023Z,4.53
2018-05-14T20:12:54.400Z,4.87
2018-05-14T20:15:48.021Z,4.93
2018-05-14T20:18:19.708Z,7.30
2018-05-14T20:20:52.196Z,5.87
2018-05-14T20:23:36.177Z,4.17
2018-05-14T20:26:19.643Z,5.40
2018-05-14T20:29:06.704Z,4.33
2018-05-14T20:31:42.043Z,4.03
2018-05-14T20:34:16.425Z,4.20
2018-05-14T20:37:00.140Z,8.80
2018-05-14T20:39:33.816Z,5.97
2018-05-14T20:42:20.158Z,4.27
2018-05-14T20:45:10.398Z,5.00
2018-05-14T20:47:54.753Z,4.53
2018-05-14T20:50:52.021Z,3.50
2018-05-14T20:53:22.626Z,5.20
2018-05-14T20:55:54.651Z,3.07
2018-05-14T20:58:47.998Z,3.23
2018-05-14T21:01:34.008Z,2.80
2018-05-14T21:04:08.718Z,4.30
2018-05-14T21:06:39.437Z,2.73
2018-05-14T21:09:27.369Z,3.60
2018-05-14T21:12:18.405Z,4.03
2018-05-14T21:14:55.967Z,3.10
2018-05-14T21:17:26.652Z,3.57
2018-05-14T21:20:07.519Z,2.80
2018-05-14T21:22:41.206Z,2.40
2018-05-14T21:25:11.489Z,3.27
2018-05-14T21:27:47.908Z,4.13
2018-05-14T21:30:20.949Z,2.90
2018-05-14T21:32:52.168Z,3.00
2018-05-14T21:35:22.846Z,4.10
2018-05-14T21:37:56.968Z,3.30
2018-05-14T21:40:27.470Z,3.40
2018-05-14T21:42:57.430Z,3.43
2018-05-14T21:45:31.390Z,3.73
2018-05-14T21:48:02.862Z,3.40
2018-05-14T21:50:34.229Z,3.90
2018-05-14T21:53:09.121Z,5.83
2018-05-14T21:55:46.283Z,3.17
2018-05-14T21:58:19.592Z,3.20
2018-05-14T22:01:05.560Z,3.90
2018-05-14T22:06:45.307Z,3.37
2018-05-14T22:09:29.569Z,3.80
2018-05-14T22:12:03.749Z,3.77
2018-05-14T22:14:34.843Z,3.63
2018-05-14T22:17:09.067Z,3.87
2018-05-14T22:19:44.130Z,3.30
2018-05-14T22:22:13.794Z,4.00
2018-05-14T22:24:42.742Z,3.00
2018-05-14T22:27:25.077Z,4.07
2018-05-14T22:30:07.861Z,3.03
2018-05-14T22:32:42.376Z,2.50
2018-05-14T22:35:12.636Z,2.43
2018-05-14T22:37:42.367Z,3.20
2018-05-14T22:40:11.298Z,4.03
2018-05-14T22:42:41.631Z,3.10
2018-05-14T22:45:11.212Z,2.97
2018-05-14T22:47:56.256Z,4.07
2018-05-14T22:50:31.379Z,2.93
2018-05-14T22:53:03.054Z,3.00
2018-05-14T22:55:35.260Z,2.70
2018-05-14T22:58:07.702Z,4.13
2018-05-14T23:00:40.453Z,4.20
2018-05-14T23:03:12.265Z,3.10
2018-05-14T23:05:43.465Z,3.70
2018-05-14T23:08:14.147Z,2.97
2018-05-14T23:10:49.391Z,4.27
2018-05-14T23:13:21.369Z,4.13
2018-05-14T23:15:57.244Z,3.00
2018-05-14T23:18:32.122Z,3.23
2018-05-14T23:21:08.288Z,3.40
2018-05-14T23:23:38.032Z,2.60
2018-05-14T23:26:09.571Z,3.13
2018-05-14T23:28:40.973Z,3.23
2018-05-14T23:31:10.441Z,3.80
2018-05-14T23:33:41.958Z,3.87
2018-05-14T23:36:11.039Z,2.47
2018-05-14T23:38:41.193Z,2.47
2018-05-14T23:41:11.196Z,3.97
2018-05-14T23:43:40.099Z,2.17
2018-05-14T23:46:18.924Z,2.63
2018-05-14T23:48:48.835Z,2.87
2018-05-14T23:51:17.744Z,2.27
2018-05-14T23:53:55.501Z,2.43
2018-05-14T23:56:30.701Z,2.60
2018-05-14T23:59:00.502Z,2.47
